Lovell, Wyoming
Current Conditions -  °F | °C
As of 2:35 AM on Friday 31 Oct 2014 (Local Time) from KU68 Reporting Station
Clear Clear  
Wind Chill: 43°   Ceiling: Unl
Heat Index: 43°   Visibility: 10mi
Dew Point: 23°   Wind: 3mph
Humidity: 46%   Direction: 50°NE
Pressure: 30.15"   Gusts: NA
Location:  44.84°N, 108.39°W
Report Text: KU68 310835Z AUTO 05003KT 10SM CLR 06/M05 A3015 RMK AO2 PWINO
Loading
Personal Weather Stations






























Interactive Weather Map
Tropical Storm Tracking
New forecast layout! Learn more

10-Day Weather Forecast

Advertisements
Track Severe Weather on mobile